Time;durP1;ratioP1;P1;durP2;ratioP2;P2;SDS_P1;SDS_P2;PMS_P1;PMS_P2;Temp;Humidity;BMP_temperature;BMP_pressure;BME280_temperature;BME280_humidity;BME280_pressure;Samples;Min_cycle;Max_cycle;Signal;HPM_P1;HPM_P2
2024/02/10 00:01:02;;;;;;;17.00;9.70;;;;;;;5.85;100.00;95429.91;6156401;28;20227;-58
2024/02/10 00:04:06;;;;;;;13.07;9.63;;;;;;;6.07;100.00;95456.88;6151843;28;20561;-58
2024/02/10 00:07:09;;;;;;;14.27;9.50;;;;;;;6.11;100.00;95447.34;6154002;28;20238;-57
2024/02/10 00:10:12;;;;;;;14.10;8.70;;;;;;;5.76;100.00;95420.94;6154749;28;20201;-58
2024/02/10 00:13:15;;;;;;;13.50;9.37;;;;;;;5.77;100.00;95439.19;6166721;28;20220;-58
2024/02/10 00:16:18;;;;;;;13.03;9.30;;;;;;;5.81;100.00;95436.78;6156801;28;20202;-58
2024/02/10 00:19:21;;;;;;;14.97;9.87;;;;;;;5.78;100.00;95435.47;6159355;28;20191;-58
2024/02/10 00:22:24;;;;;;;13.30;8.53;;;;;;;5.66;100.00;95437.59;6161340;28;20207;-58
2024/02/10 00:25:26;;;;;;;12.13;7.90;;;;;;;6.00;100.00;95432.56;6151366;28;20195;-58
2024/02/10 00:28:29;;;;;;;11.70;8.80;;;;;;;5.65;100.00;95420.16;6158531;28;20220;-58
2024/02/10 00:31:32;;;;;;;11.10;8.00;;;;;;;5.86;100.00;95434.94;6157618;28;20275;-57
2024/02/10 00:34:34;;;;;;;10.07;7.67;;;;;;;5.73;100.00;95432.84;6145132;28;20806;-58
2024/02/10 00:37:36;;;;;;;14.73;8.37;;;;;;;5.86;100.00;95440.22;6157361;28;20648;-57
2024/02/10 00:40:38;;;;;;;11.73;7.87;;;;;;;5.69;100.00;95439.72;6166985;28;20199;-57
2024/02/10 00:43:45;;;;;;;10.23;7.10;;;;;;;5.86;100.00;95444.69;6165787;28;20206;-58
2024/02/10 00:46:47;;;;;;;10.97;6.43;;;;;;;5.79;100.00;95442.34;6152633;28;20213;-58
2024/02/10 00:49:49;;;;;;;11.73;7.33;;;;;;;5.66;100.00;95434.94;6162134;28;20205;-58
2024/02/10 00:52:52;;;;;;;8.87;6.40;;;;;;;5.40;100.00;95407.75;6152270;28;21014;-58
2024/02/10 00:55:54;;;;;;;10.10;5.90;;;;;;;5.60;100.00;95434.16;6160454;28;20215;-58
2024/02/10 00:58:56;;;;;;;10.63;6.47;;;;;;;5.81;100.00;95428.84;6145123;28;20202;-58
2024/02/10 01:02:00;;;;;;;9.70;5.80;;;;;;;5.70;100.00;95428.88;6170295;28;20686;-58
2024/02/10 01:05:05;;;;;;;9.47;5.33;;;;;;;5.43;100.00;95418.59;6164828;28;21111;-58
2024/02/10 01:08:08;;;;;;;7.60;5.40;;;;;;;5.32;100.00;95413.56;6163304;28;20201;-57
2024/02/10 01:11:11;;;;;;;7.77;4.70;;;;;;;5.61;100.00;95413.81;6156268;28;20228;-58
2024/02/10 01:14:14;;;;;;;7.87;4.63;;;;;;;5.36;100.00;95396.94;6152669;28;20214;-57
2024/02/10 01:17:16;;;;;;;9.37;4.50;;;;;;;5.50;100.00;95406.97;6161921;28;20222;-57
2024/02/10 01:20:18;;;;;;;9.73;4.67;;;;;;;5.53;100.00;95407.25;6163798;28;20677;-59
2024/02/10 01:23:21;;;;;;;8.27;4.50;;;;;;;5.35;100.00;95395.34;6160733;28;20207;-58
2024/02/10 01:26:23;;;;;;;7.07;4.17;;;;;;;5.71;100.00;95397.97;6161914;28;20196;-58
2024/02/10 01:29:25;;;;;;;6.17;4.10;;;;;;;5.41;100.00;95404.84;6166968;28;20295;-58
2024/02/10 01:32:27;;;;;;;7.77;3.80;;;;;;;5.33;100.00;95394.84;6157848;28;20625;-58
2024/02/10 01:35:30;;;;;;;8.03;3.80;;;;;;;5.30;100.00;95392.72;6154119;28;20213;-58
2024/02/10 01:38:37;;;;;;;7.83;4.20;;;;;;;5.30;100.00;95391.94;6159380;28;20189;-58
2024/02/10 01:41:39;;;;;;;4.40;3.57;;;;;;;5.34;100.00;95388.50;6166325;28;20290;-58
2024/02/10 01:44:45;;;;;;;6.77;3.17;;;;;;;5.28;100.00;95386.13;6165307;28;20207;-57
2024/02/10 01:47:48;;;;;;;4.83;3.57;;;;;;;5.14;100.00;95378.75;6143560;28;20215;-58
2024/02/10 01:50:50;;;;;;;7.97;3.70;;;;;;;5.18;100.00;95376.38;6160772;28;20209;-58
2024/02/10 01:53:56;;;;;;;4.37;3.37;;;;;;;5.08;100.00;95368.44;6164678;28;20201;-58
2024/02/10 01:56:59;;;;;;;5.00;3.10;;;;;;;5.02;100.00;95380.03;6159158;28;20729;-58
2024/02/10 02:00:06;;;;;;;4.53;3.20;;;;;;;5.10;100.00;95371.59;6159198;28;20571;-58
2024/02/10 02:03:08;;;;;;;7.53;3.43;;;;;;;5.06;100.00;95381.88;6161295;28;20223;-57
2024/02/10 02:06:11;;;;;;;6.67;3.30;;;;;;;5.00;100.00;95375.03;6158212;28;20250;-58
2024/02/10 02:09:13;;;;;;;4.70;3.40;;;;;;;4.96;100.00;95381.88;6157288;28;20212;-59
2024/02/10 02:12:15;;;;;;;5.50;3.50;;;;;;;5.11;100.00;95373.19;6159226;28;20201;-59
2024/02/10 02:15:18;;;;;;;4.23;3.33;;;;;;;5.15;100.00;95368.97;6168125;28;20205;-58
2024/02/10 02:18:20;;;;;;;7.27;3.40;;;;;;;5.25;100.00;95368.97;6167819;28;20204;-59
2024/02/10 02:21:24;;;;;;;5.73;3.10;;;;;;;4.80;100.00;95357.34;6163316;28;20257;-59
2024/02/10 02:24:30;;;;;;;4.17;3.03;;;;;;;4.41;100.00;95338.53;6167259;28;20205;-59
2024/02/10 02:27:32;;;;;;;3.90;2.93;;;;;;;4.38;100.00;95363.59;6163667;28;20272;-59
2024/02/10 02:30:35;;;;;;;8.17;3.20;;;;;;;4.52;100.00;95365.72;6150953;28;20242;-59
2024/02/10 02:33:40;;;;;;;5.40;2.80;;;;;;;4.31;100.00;95360.41;6161473;28;20206;-58
2024/02/10 02:36:43;;;;;;;5.80;3.27;;;;;;;4.21;100.00;95362.22;6162454;28;20196;-59
2024/02/10 02:39:45;;;;;;;5.97;3.20;;;;;;;4.04;100.00;95360.56;6157257;28;20566;-59
2024/02/10 02:42:47;;;;;;;6.07;3.43;;;;;;;3.99;100.00;95357.09;6164961;28;20206;-59
2024/02/10 02:45:49;;;;;;;6.47;2.87;;;;;;;3.93;100.00;95351.03;6162027;28;20190;-58
2024/02/10 02:48:53;;;;;;;6.93;3.10;;;;;;;4.13;100.00;95369.53;6160694;28;20214;-59
2024/02/10 02:51:55;;;;;;;4.07;2.67;;;;;;;4.03;100.00;95373.97;6163875;28;20198;-59
2024/02/10 02:54:59;;;;;;;3.80;3.00;;;;;;;3.83;100.00;95375.47;6164411;28;20199;-59
2024/02/10 02:58:04;;;;;;;6.27;3.20;;;;;;;3.76;100.00;95368.88;6163495;28;20427;-58
2024/02/10 03:01:07;;;;;;;6.47;3.30;;;;;;;3.65;100.00;95361.97;6161530;28;20230;-59
2024/02/10 03:04:09;;;;;;;8.60;3.70;;;;;;;3.52;100.00;95363.97;6159184;28;20202;-58
2024/02/10 03:07:18;;;;;;;5.20;3.43;;;;;;;3.57;100.00;95363.22;6164685;28;20238;-58
2024/02/10 03:10:20;;;;;;;5.33;3.80;;;;;;;3.42;100.00;95357.88;6160783;28;20358;-59
2024/02/10 03:13:24;;;;;;;6.07;3.97;;;;;;;3.28;100.00;95368.03;6129139;29;20576;-59
2024/02/10 03:16:33;;;;;;;6.27;4.03;;;;;;;3.38;100.00;95364.66;6161268;28;20767;-58
2024/02/10 03:19:38;;;;;;;5.53;4.10;;;;;;;3.28;100.00;95368.81;6163971;28;20611;-57
2024/02/10 03:22:41;;;;;;;6.00;3.80;;;;;;;3.32;100.00;95377.00;6160404;28;20562;-58
2024/02/10 03:25:43;;;;;;;6.23;3.90;;;;;;;3.26;100.00;95373.53;6155698;28;20790;-57
2024/02/10 03:28:45;;;;;;;6.67;4.00;;;;;;;3.05;100.00;95358.63;6159630;28;20214;-57
2024/02/10 03:31:47;;;;;;;5.13;3.47;;;;;;;3.09;100.00;95370.25;6165291;28;20277;-59
2024/02/10 03:34:50;;;;;;;6.37;4.77;;;;;;;3.04;100.00;95371.00;6153484;28;20561;-57
2024/02/10 03:37:52;;;;;;;5.23;3.57;;;;;;;3.01;100.00;95374.16;6168238;28;20197;-59
2024/02/10 03:40:55;;;;;;;7.00;3.40;;;;;;;2.92;100.00;95362.50;6160382;28;20662;-57
2024/02/10 03:43:57;;;;;;;4.63;3.17;;;;;;;2.82;100.00;95365.81;6156250;28;20222;-59
2024/02/10 03:47:00;;;;;;;6.20;3.50;;;;;;;2.95;100.00;95364.59;6157720;28;20202;-57
2024/02/10 03:50:04;;;;;;;6.43;3.03;;;;;;;2.69;100.00;95362.81;6154272;28;20304;-58
2024/02/10 03:53:06;;;;;;;5.23;2.57;;;;;;;2.71;100.00;95364.16;6165280;28;20562;-58
2024/02/10 03:56:09;;;;;;;2.93;2.50;;;;;;;2.68;100.00;95366.47;6163462;28;20348;-59
2024/02/10 03:59:13;;;;;;;4.00;2.60;;;;;;;2.66;100.00;95371.19;6161325;28;20198;-58
2024/02/10 04:02:18;;;;;;;2.83;2.40;;;;;;;2.79;100.00;95366.31;6168131;28;20197;-59
2024/02/10 04:05:21;;;;;;;4.30;2.10;;;;;;;2.73;100.00;95362.06;6164677;28;20238;-58
2024/02/10 04:08:24;;;;;;;3.87;2.43;;;;;;;2.68;100.00;95366.47;6148851;28;20569;-58
2024/02/10 04:11:27;;;;;;;4.77;2.27;;;;;;;2.96;100.00;95362.78;6158895;28;20669;-59
2024/02/10 04:14:29;;;;;;;4.40;2.20;;;;;;;2.64;100.00;95362.75;6159431;28;20339;-58
2024/02/10 04:17:31;;;;;;;4.93;2.63;;;;;;;2.71;100.00;95369.41;6152714;28;20186;-59
2024/02/10 04:20:33;;;;;;;4.60;2.40;;;;;;;2.48;100.00;95365.25;6161199;28;20249;-57
2024/02/10 04:23:39;;;;;;;4.33;2.70;;;;;;;2.40;100.00;95365.66;6158358;28;20194;-57
2024/02/10 04:26:43;;;;;;;8.60;2.50;;;;;;;2.61;100.00;95366.69;6165771;28;20224;-57
2024/02/10 04:29:45;;;;;;;5.67;3.00;;;;;;;2.45;100.00;95364.94;6160229;28;20216;-58
2024/02/10 04:32:47;;;;;;;4.03;2.30;;;;;;;2.44;100.00;95365.97;6155930;28;20639;-59
2024/02/10 04:35:50;;;;;;;2.80;2.27;;;;;;;2.37;100.00;95368.03;6157028;28;20642;-57
2024/02/10 04:38:52;;;;;;;3.27;2.10;;;;;;;2.26;100.00;95367.09;6156747;28;20197;-58
2024/02/10 04:41:55;;;;;;;4.00;2.30;;;;;;;2.17;100.00;95337.88;6161791;28;20582;-58
2024/02/10 04:44:59;;;;;;;3.47;2.00;;;;;;;2.28;100.00;95360.56;6162716;28;20208;-57
2024/02/10 04:48:08;;;;;;;4.07;1.80;;;;;;;2.24;100.00;95363.94;6138689;28;20221;-57
2024/02/10 04:51:13;;;;;;;2.33;1.60;;;;;;;2.07;100.00;95332.50;6158568;28;20210;-57
2024/02/10 04:54:16;;;;;;;2.23;1.80;;;;;;;2.14;100.00;95356.72;6161586;28;20716;-58
2024/02/10 04:57:28;;;;;;;3.93;2.13;;;;;;;2.04;100.00;95359.25;6160803;28;20306;-58
2024/02/10 05:00:32;;;;;;;2.47;1.70;;;;;;;1.72;100.00;95332.84;6164969;28;20190;-57
2024/02/10 05:03:35;;;;;;;4.27;1.80;;;;;;;1.88;100.00;95362.72;6160093;28;20197;-57
2024/02/10 05:06:37;;;;;;;5.10;1.80;;;;;;;1.95;100.00;95364.13;6154195;28;20252;-57
2024/02/10 05:09:41;;;;;;;4.27;1.97;;;;;;;2.02;100.00;95356.88;6161583;28;20268;-59
2024/02/10 05:12:44;;;;;;;2.90;1.70;;;;;;;1.77;100.00;95331.09;6158649;28;20199;-58
2024/02/10 05:15:49;;;;;;;4.30;3.07;;;;;;;1.92;100.00;95355.91;6166348;28;20307;-58
2024/02/10 05:18:51;;;;;;;6.93;5.73;;;;;;;1.90;100.00;95352.75;6156142;28;20200;-58
2024/02/10 05:21:56;;;;;;;7.80;3.10;;;;;;;1.94;100.00;95357.28;6164650;28;20280;-59
2024/02/10 05:24:58;;;;;;;2.87;1.83;;;;;;;2.08;100.00;95368.22;6169492;28;20233;-56
2024/02/10 05:28:01;;;;;;;2.63;1.97;;;;;;;1.94;100.00;95359.13;6165620;28;20280;-56
2024/02/10 05:31:04;;;;;;;4.27;1.97;;;;;;;2.09;100.00;95372.44;6158747;28;20288;-57
2024/02/10 05:34:10;;;;;;;3.97;2.67;;;;;;;2.23;100.00;95384.16;6149303;29;20662;-57
2024/02/10 05:37:14;;;;;;;3.83;2.00;;;;;;;2.04;100.00;95380.25;6159929;28;20253;-57
2024/02/10 05:40:17;;;;;;;3.23;2.07;;;;;;;2.03;100.00;95379.44;6154718;28;20205;-57
2024/02/10 05:43:20;;;;;;;5.37;2.17;;;;;;;1.99;100.00;95372.31;6160242;28;20660;-59
2024/02/10 05:46:22;;;;;;;2.83;1.60;;;;;;;2.16;100.00;95373.03;6163261;28;20906;-57
2024/02/10 05:49:25;;;;;;;3.27;1.80;;;;;;;1.89;100.00;95372.19;6170421;28;20221;-57
2024/02/10 05:52:27;;;;;;;3.47;1.90;;;;;;;1.75;100.00;95346.28;6158594;28;20197;-57
2024/02/10 05:55:30;;;;;;;3.30;1.93;;;;;;;1.94;100.00;95364.38;6152215;28;20625;-57
2024/02/10 05:58:32;;;;;;;3.33;1.83;;;;;;;2.09;100.00;95375.06;6164281;28;20868;-57
2024/02/10 06:01:35;;;;;;;2.90;2.10;;;;;;;1.97;100.00;95332.34;6139839;28;20192;-57
2024/02/10 06:04:40;;;;;;;6.50;1.87;;;;;;;2.11;100.00;95374.78;6169551;28;20568;-57
2024/02/10 06:07:45;;;;;;;4.10;1.73;;;;;;;1.92;100.00;95374.31;6169079;28;20665;-56
2024/02/10 06:10:50;;;;;;;2.87;1.50;;;;;;;1.92;100.00;95390.06;6154129;28;20203;-57
2024/02/10 06:13:52;;;;;;;2.10;1.63;;;;;;;1.97;100.00;95390.94;6156079;28;20592;-57
2024/02/10 06:16:55;;;;;;;2.20;1.60;;;;;;;2.03;100.00;95387.34;6165178;28;20675;-56
2024/02/10 06:19:58;;;;;;;2.17;1.67;;;;;;;2.02;100.00;95393.63;6162855;28;20188;-57
2024/02/10 06:23:01;;;;;;;2.07;1.80;;;;;;;1.72;100.00;95380.88;6161915;28;20276;-57
2024/02/10 06:26:07;;;;;;;1.93;1.43;;;;;;;1.90;100.00;95407.88;6162019;28;20195;-57
2024/02/10 06:29:10;;;;;;;3.47;1.20;;;;;;;1.73;100.00;95393.00;6158070;28;20237;-57
2024/02/10 06:32:12;;;;;;;3.00;1.60;;;;;;;1.92;100.00;95405.81;6163087;28;20676;-58
2024/02/10 06:35:16;;;;;;;4.77;1.30;;;;;;;2.34;100.00;95408.69;6158609;28;20216;-58
2024/02/10 06:38:19;;;;;;;2.93;1.50;;;;;;;2.15;100.00;95399.53;6160948;28;20200;-58
2024/02/10 06:41:25;;;;;;;1.00;0.90;;;;;;;1.81;100.00;95373.38;6138397;28;20606;-57
2024/02/10 06:44:27;;;;;;;1.33;1.17;;;;;;;1.87;100.00;95406.53;6155069;28;20289;-57
2024/02/10 06:47:29;;;;;;;2.13;1.40;;;;;;;1.86;100.00;95412.81;6161288;28;20195;-58
2024/02/10 06:50:31;;;;;;;1.73;1.07;;;;;;;1.85;100.00;95420.94;6163308;28;20220;-58
2024/02/10 06:53:34;;;;;;;1.40;1.20;;;;;;;1.74;100.00;95420.03;6151289;28;20259;-58
2024/02/10 06:56:36;;;;;;;3.60;1.30;;;;;;;1.89;100.00;95433.34;6152275;28;20351;-58
2024/02/10 06:59:38;;;;;;;2.23;1.53;;;;;;;1.69;100.00;95404.22;6148389;28;20209;-58
2024/02/10 07:02:44;;;;;;;3.37;1.70;;;;;;;2.12;100.00;95429.72;6164698;28;20287;-58
2024/02/10 07:05:49;;;;;;;3.03;1.40;;;;;;;2.28;100.00;95415.72;6160546;28;20604;-58
2024/02/10 07:08:52;;;;;;;3.90;1.30;;;;;;;2.13;100.00;95426.06;6153400;28;20206;-57
2024/02/10 07:11:54;;;;;;;1.47;1.37;;;;;;;2.37;100.00;95412.69;6152364;28;20231;-58
2024/02/10 07:14:57;;;;;;;1.20;1.10;;;;;;;2.66;100.00;95419.31;6151549;28;20213;-58
2024/02/10 07:18:02;;;;;;;2.67;1.20;;;;;;;2.50;100.00;95414.91;6153029;28;20199;-58
2024/02/10 07:21:05;;;;;;;1.47;1.30;;;;;;;2.38;100.00;95430.03;6155674;28;20191;-58
2024/02/10 07:24:07;;;;;;;1.93;1.23;;;;;;;2.46;100.00;95440.09;6161260;28;20692;-56
2024/02/10 07:27:11;;;;;;;6.10;1.63;;;;;;;2.57;100.00;95439.97;6159724;28;20336;-57
2024/02/10 07:30:14;;;;;;;1.97;1.20;;;;;;;2.70;100.00;95438.78;6157477;28;20252;-56
2024/02/10 07:33:16;;;;;;;1.40;1.30;;;;;;;2.78;100.00;95440.97;6158069;28;20215;-58
2024/02/10 07:36:18;;;;;;;2.07;1.50;;;;;;;2.72;100.00;95443.81;6152959;28;20229;-58
2024/02/10 07:39:24;;;;;;;1.80;1.20;;;;;;;2.72;100.00;95438.56;6164972;28;20268;-57
2024/02/10 07:42:26;;;;;;;3.30;2.47;;;;;;;2.72;100.00;95430.66;6159944;28;20203;-58
2024/02/10 07:45:30;;;;;;;2.73;1.33;;;;;;;2.79;100.00;95442.56;6163962;28;20210;-57
2024/02/10 07:48:32;;;;;;;2.20;1.50;;;;;;;2.81;100.00;95437.88;6158298;28;20595;-57
2024/02/10 07:51:35;;;;;;;3.60;1.53;;;;;;;2.82;100.00;95442.06;6163431;28;20198;-58
2024/02/10 07:54:38;;;;;;;3.23;1.57;;;;;;;2.90;100.00;95451.34;6156450;28;20233;-57
2024/02/10 07:57:41;;;;;;;3.80;1.60;;;;;;;2.91;100.00;95449.53;6150671;28;20194;-58
2024/02/10 08:00:43;;;;;;;1.53;1.20;;;;;;;2.96;100.00;95457.47;6155697;28;20249;-58
2024/02/10 08:03:45;;;;;;;3.80;1.67;;;;;;;3.00;100.00;95450.66;6135445;28;20284;-58
2024/02/10 08:06:48;;;;;;;3.63;2.50;;;;;;;3.16;100.00;95457.66;6161425;28;20747;-58
2024/02/10 08:09:51;;;;;;;3.00;2.40;;;;;;;3.41;100.00;95443.91;6152459;28;20836;-59
2024/02/10 08:12:54;;;;;;;1.67;1.17;;;;;;;3.65;100.00;95436.47;6166073;28;20209;-58
2024/02/10 08:15:57;;;;;;;2.47;1.80;;;;;;;3.84;100.00;95445.53;6159492;28;22742;-59
2024/02/10 08:19:03;;;;;;;6.23;3.03;;;;;;;4.15;100.00;95440.44;6157520;28;20728;-58
2024/02/10 08:22:11;;;;;;;1.40;1.30;;;;;;;4.45;100.00;95452.97;6161776;28;20197;-59
2024/02/10 08:25:13;;;;;;;1.50;1.40;;;;;;;4.25;100.00;95444.97;6163686;28;20199;-58
2024/02/10 08:28:18;;;;;;;3.50;1.57;;;;;;;4.46;100.00;95448.50;6160401;28;20197;-59
2024/02/10 08:31:20;;;;;;;2.70;1.47;;;;;;;4.54;100.00;95442.72;6158830;28;20206;-58
2024/02/10 08:34:22;;;;;;;2.67;1.60;;;;;;;4.73;100.00;95450.94;6167467;28;20686;-58
2024/02/10 08:37:29;;;;;;;2.40;1.40;;;;;;;4.77;100.00;95449.38;6166837;28;20690;-57
2024/02/10 08:40:32;;;;;;;3.77;1.60;;;;;;;4.81;100.00;95453.09;6161527;28;20202;-58
2024/02/10 08:43:36;;;;;;;1.53;1.33;;;;;;;4.86;100.00;95443.34;6156925;28;20198;-58
2024/02/10 08:46:39;;;;;;;1.83;1.50;;;;;;;5.07;100.00;95454.72;6170686;28;20194;-58
2024/02/10 08:49:42;;;;;;;2.47;2.00;;;;;;;5.24;100.00;95453.69;6162217;28;20210;-58
2024/02/10 08:52:48;;;;;;;2.90;2.23;;;;;;;5.52;100.00;95439.22;6160850;28;20230;-58
2024/02/10 08:55:50;;;;;;;3.70;1.90;;;;;;;5.93;100.00;95455.84;6151801;28;20224;-58
2024/02/10 08:58:53;;;;;;;2.60;2.10;;;;;;;6.38;100.00;95444.34;6161381;28;20205;-58
2024/02/10 09:01:57;;;;;;;2.37;1.90;;;;;;;6.83;100.00;95442.56;6145445;28;20208;-59
2024/02/10 09:05:01;;;;;;;5.40;4.40;;;;;;;6.97;100.00;95440.91;6168415;28;20233;-58
2024/02/10 09:08:04;;;;;;;3.17;2.20;;;;;;;7.29;100.00;95431.72;6160817;28;20680;-58
2024/02/10 09:11:06;;;;;;;5.33;3.13;;;;;;;7.61;100.00;95433.06;6164218;28;20221;-59
2024/02/10 09:14:08;;;;;;;5.50;4.47;;;;;;;7.78;100.00;95404.25;6164730;28;20208;-59
2024/02/10 09:17:11;;;;;;;6.30;4.67;;;;;;;8.14;100.00;95419.84;6169774;28;20207;-58
2024/02/10 09:20:14;;;;;;;7.90;4.97;;;;;;;8.39;100.00;95414.28;6157049;28;20198;-59
2024/02/10 09:23:16;;;;;;;7.03;4.27;;;;;;;8.48;100.00;95390.56;6146440;28;20347;-58
2024/02/10 09:26:20;;;;;;;5.10;3.93;;;;;;;8.92;100.00;95418.66;6161100;28;20707;-58
2024/02/10 09:29:22;;;;;;;7.17;3.97;;;;;;;9.21;100.00;95416.66;6171406;28;20216;-58
2024/02/10 09:32:24;;;;;;;5.03;3.80;;;;;;;9.55;100.00;95410.28;6154644;28;20202;-57
2024/02/10 09:35:26;;;;;;;5.27;3.43;;;;;;;9.87;100.00;95406.81;6158717;28;20626;-58
2024/02/10 09:38:38;;;;;;;5.10;3.90;;;;;;;10.07;100.00;95409.13;6167225;28;20194;-58
2024/02/10 09:41:41;;;;;;;4.67;3.53;;;;;;;10.22;100.00;95405.38;6168038;28;20246;-59
2024/02/10 09:44:45;;;;;;;5.07;4.20;;;;;;;10.41;99.10;95400.00;6161564;28;20607;-58
2024/02/10 09:47:49;;;;;;;6.20;3.80;;;;;;;10.62;95.48;95408.34;6161963;28;20672;-58
2024/02/10 09:50:51;;;;;;;5.00;4.13;;;;;;;10.66;95.03;95419.22;6164528;28;20210;-58
2024/02/10 09:53:53;;;;;;;6.10;4.83;;;;;;;10.72;90.13;95416.13;6167493;28;20194;-58
2024/02/10 09:57:01;;;;;;;6.20;4.37;;;;;;;10.95;86.22;95416.22;6164139;28;20953;-58
2024/02/10 10:00:04;;;;;;;4.73;3.87;;;;;;;11.15;85.32;95414.97;6148661;29;20202;-57
2024/02/10 10:03:14;;;;;;;5.33;4.37;;;;;;;11.37;85.56;95423.78;6164331;28;20657;-58
2024/02/10 10:06:20;;;;;;;8.10;4.37;;;;;;;11.18;88.42;95420.50;6167631;28;20760;-58
2024/02/10 10:09:23;;;;;;;5.90;4.13;;;;;;;11.09;89.65;95423.09;6164533;28;20213;-58
2024/02/10 10:12:25;;;;;;;5.33;4.07;;;;;;;11.13;90.43;95414.47;6157533;28;20273;-57
2024/02/10 10:15:30;;;;;;;5.73;3.80;;;;;;;11.15;87.91;95414.97;6164086;28;20206;-58
2024/02/10 10:18:35;;;;;;;6.23;4.70;;;;;;;11.11;86.78;95383.59;6151712;28;20573;-58
2024/02/10 10:21:37;;;;;;;7.50;5.13;;;;;;;11.25;84.76;95377.44;6159888;28;20205;-58
2024/02/10 10:24:41;;;;;;;5.90;4.30;;;;;;;11.34;87.15;95367.63;6154537;28;20605;-58
2024/02/10 10:27:45;;;;;;;7.07;4.93;;;;;;;11.46;88.17;95378.53;6150938;28;20252;-55
2024/02/10 10:30:47;;;;;;;10.33;6.83;;;;;;;11.54;85.91;95374.34;6160186;28;20245;-55
2024/02/10 10:33:50;;;;;;;13.83;10.47;;;;;;;11.58;86.43;95394.00;6163262;28;20288;-58
2024/02/10 10:36:53;;;;;;;11.93;9.70;;;;;;;11.67;82.72;95386.00;6168585;28;20205;-54
2024/02/10 10:39:56;;;;;;;16.17;10.53;;;;;;;11.72;83.28;95396.56;6157125;28;20667;-52
2024/02/10 10:43:01;;;;;;;10.80;9.60;;;;;;;11.76;81.94;95386.84;6150900;28;20201;-53
2024/02/10 10:46:03;;;;;;;13.87;10.50;;;;;;;11.85;80.74;95415.19;6154194;28;20588;-54
2024/02/10 10:49:09;;;;;;;15.10;11.07;;;;;;;11.83;78.50;95409.38;6158221;28;20212;-53
2024/02/10 10:52:20;;;;;;;17.10;11.40;;;;;;;11.70;77.56;95401.41;6160368;28;20243;-52
2024/02/10 10:55:27;;;;;;;14.13;10.73;;;;;;;11.71;76.50;95411.00;6161107;28;20225;-54
2024/02/10 10:58:38;;;;;;;16.43;11.67;;;;;;;11.35;77.11;95409.19;6146589;29;20253;-54
2024/02/10 11:01:43;;;;;;;14.03;10.57;;;;;;;11.41;77.02;95410.63;6163173;28;20205;-54
2024/02/10 11:04:45;;;;;;;14.10;11.53;;;;;;;11.43;77.20;95397.81;6158630;28;20230;-53
2024/02/10 11:07:50;;;;;;;12.73;10.70;;;;;;;11.55;76.37;95398.03;6158148;28;20729;-52
2024/02/10 11:11:00;;;;;;;15.10;11.03;;;;;;;11.53;76.83;95397.56;6161628;28;20229;-53
2024/02/10 11:14:10;;;;;;;13.53;11.10;;;;;;;11.62;76.89;95384.25;6157207;28;20203;-51
2024/02/10 11:17:12;;;;;;;14.23;11.00;;;;;;;11.90;74.39;95398.28;6158231;28;20492;-52
2024/02/10 11:20:16;;;;;;;15.23;10.57;;;;;;;11.86;74.11;95402.63;6161454;28;20719;-54
2024/02/10 11:23:21;;;;;;;13.57;10.17;;;;;;;11.95;73.10;95387.47;6158079;28;20197;-54
2024/02/10 11:26:26;;;;;;;13.57;10.90;;;;;;;12.04;73.76;95392.84;6163014;28;20734;-54
2024/02/10 11:29:28;;;;;;;12.10;9.37;;;;;;;12.14;72.09;95390.69;6148048;28;20597;-56
2024/02/10 11:32:32;;;;;;;12.43;8.80;;;;;;;12.36;70.84;95386.38;6148594;28;20597;-57
2024/02/10 11:35:37;;;;;;;12.03;8.53;;;;;;;12.33;70.84;95374.44;6167304;28;20248;-54
2024/02/10 11:38:40;;;;;;;11.60;8.23;;;;;;;12.26;70.70;95370.63;6161326;28;20205;-54
2024/02/10 11:41:42;;;;;;;9.53;8.03;;;;;;;12.47;70.80;95379.69;6154997;28;20246;-55
2024/02/10 11:44:46;;;;;;;10.40;7.30;;;;;;;12.55;69.85;95378.91;6153283;28;20198;-52
2024/02/10 11:47:54;;;;;;;10.87;7.23;;;;;;;12.56;70.69;95364.47;6155191;28;20222;-53
2024/02/10 11:50:59;;;;;;;9.97;7.23;;;;;;;12.70;71.65;95368.88;6156687;28;20564;-52
2024/02/10 11:54:06;;;;;;;14.63;8.40;;;;;;;12.77;72.88;95377.22;6164773;28;20720;-53
2024/02/10 11:57:08;;;;;;;11.80;8.43;;;;;;;12.75;71.84;95361.50;6161345;28;20202;-54
2024/02/10 12:00:12;;;;;;;10.90;8.30;;;;;;;12.79;71.66;95365.13;6149191;28;20324;-53
2024/02/10 12:03:18;;;;;;;11.30;8.33;;;;;;;12.84;71.34;95374.88;6159534;28;20199;-53
2024/02/10 12:06:21;;;;;;;11.80;8.03;;;;;;;12.84;71.07;95372.97;6153305;28;20582;-52
2024/02/10 12:09:26;;;;;;;8.50;6.60;;;;;;;12.93;72.50;95374.88;6152907;28;20205;-52
2024/02/10 12:12:28;;;;;;;7.83;7.03;;;;;;;12.83;71.84;95362.63;6160075;28;20201;-54
2024/02/10 12:15:32;;;;;;;9.10;6.70;;;;;;;12.88;71.30;95354.44;6164529;28;20190;-54
2024/02/10 12:18:34;;;;;;;8.67;6.73;;;;;;;12.72;72.02;95329.28;6155104;28;20607;-53
2024/02/10 12:21:40;;;;;;;7.27;6.07;;;;;;;12.80;73.04;95333.84;6169625;28;20200;-54
2024/02/10 12:24:44;;;;;;;7.47;6.13;;;;;;;12.97;72.18;95341.88;6162077;28;20690;-53
2024/02/10 12:27:46;;;;;;;7.40;6.07;;;;;;;13.08;71.01;95345.81;6169380;28;20626;-55
2024/02/10 12:30:49;;;;;;;7.23;5.80;;;;;;;13.23;72.39;95341.13;6170478;28;20843;-53
2024/02/10 12:33:54;;;;;;;9.40;6.43;;;;;;;13.28;70.48;95347.09;6167836;28;20193;-52
2024/02/10 12:36:57;;;;;;;10.50;6.33;;;;;;;13.16;69.67;95342.34;6163192;28;20222;-54
2024/02/10 12:39:59;;;;;;;10.70;7.13;;;;;;;13.28;69.45;95357.00;6162306;28;20198;-54
2024/02/10 12:43:04;;;;;;;8.83;6.77;;;;;;;13.26;69.82;95353.88;6165608;28;20558;-52
2024/02/10 12:46:06;;;;;;;8.13;6.57;;;;;;;13.25;68.36;95354.94;6165493;28;20674;-54
2024/02/10 12:49:08;;;;;;;9.10;7.00;;;;;;;13.28;69.12;95346.31;6167553;28;20190;-53
2024/02/10 12:52:12;;;;;;;8.20;5.87;;;;;;;13.41;68.61;95335.44;6149870;29;20195;-54
2024/02/10 12:55:41;;;;;;;8.47;6.67;;;;;;;13.61;66.66;95341.22;6159597;28;20707;-53
2024/02/10 12:58:43;;;;;;;7.93;6.17;;;;;;;13.73;65.87;95332.53;6164709;28;20784;-51
2024/02/10 13:01:45;;;;;;;6.73;5.10;;;;;;;13.86;66.15;95321.63;6157726;28;20567;-53
2024/02/10 13:08:33;;;;;;;5.37;4.40;;;;;;;14.10;62.31;95302.34;6115192;29;20198;-52
2024/02/10 13:11:35;;;;;;;5.20;4.20;;;;;;;14.13;63.35;95293.63;6112568;29;20588;-53
2024/02/10 13:14:37;;;;;;;4.43;3.60;;;;;;;14.13;64.47;95282.16;6114234;29;20214;-53
2024/02/10 13:17:39;;;;;;;6.63;4.60;;;;;;;14.26;64.21;95293.75;6122682;29;20196;-53
2024/02/10 13:20:41;;;;;;;5.30;4.43;;;;;;;14.33;64.71;95294.00;6107615;29;20291;-54
2024/02/10 13:23:44;;;;;;;5.97;4.10;;;;;;;14.41;64.04;95293.97;6116974;29;20686;-54
2024/02/10 13:26:46;;;;;;;6.20;4.80;;;;;;;14.55;64.08;95293.75;6113425;29;20704;-52
2024/02/10 13:29:48;;;;;;;7.17;5.17;;;;;;;14.45;63.25;95270.78;6114260;29;20220;-53
2024/02/10 13:33:00;;;;;;;8.13;5.27;;;;;;;14.45;63.18;95278.03;6120722;29;20211;-54
2024/02/10 13:36:04;;;;;;;6.20;4.73;;;;;;;14.44;65.03;95284.50;6116685;29;20189;-52
2024/02/10 14:05:18;;;;;;;6.60;4.37;;;;;;;13.81;67.15;95276.31;6116773;28;20692;-53
2024/02/10 14:08:48;;;;;;;7.17;4.33;;;;;;;13.83;67.63;95289.38;6163816;28;20891;-51
2024/02/10 14:11:53;;;;;;;5.30;4.23;;;;;;;13.70;69.11;95288.50;6166726;28;20660;-54
2024/02/10 14:14:55;;;;;;;7.40;4.43;;;;;;;13.62;69.47;95282.03;6161493;28;20203;-53
2024/02/10 14:18:01;;;;;;;5.93;4.23;;;;;;;13.60;68.42;95264.75;6157102;28;20287;-53
2024/02/10 14:21:11;;;;;;;6.80;3.97;;;;;;;13.61;68.30;95269.00;6143159;28;20571;-53
2024/02/10 14:24:17;;;;;;;5.13;3.70;;;;;;;13.78;69.03;95284.19;6163537;28;20202;-51
2024/02/10 14:27:23;;;;;;;4.30;3.60;;;;;;;13.77;69.47;95286.09;6164100;28;20689;-51
2024/02/10 14:30:37;;;;;;;5.13;3.73;;;;;;;13.74;70.36;95294.75;6155710;28;20211;-52
2024/02/10 14:33:40;;;;;;;5.30;3.60;;;;;;;13.74;70.31;95288.59;6169191;28;20211;-51
2024/02/10 14:36:55;;;;;;;4.97;3.63;;;;;;;13.72;70.72;95285.47;6164356;28;20198;-52
2024/02/10 14:39:59;;;;;;;4.40;3.20;;;;;;;13.67;71.81;95283.75;6147493;29;20191;-52
2024/02/10 14:43:05;;;;;;;5.13;3.27;;;;;;;13.63;72.43;95294.31;6163861;28;20738;-51
2024/02/10 14:46:14;;;;;;;5.50;3.20;;;;;;;13.58;72.42;95297.16;6168963;28;20198;-52
2024/02/10 14:49:18;;;;;;;6.27;3.47;;;;;;;13.47;73.06;95293.25;6164527;28;20206;-51
2024/02/10 14:52:22;;;;;;;4.07;2.90;;;;;;;13.29;73.19;95270.31;6160930;28;20214;-53